Terminal Aerodrome Forecast
Issued by NWS

Home | Current Version | Previous Version | Text Only | Print | Product List | Glossary On
Versions: 1 2 3 4 5 6 7 8 9 10 11 12 13 14 15 16 17 18 19 20
000
FTAK31 PAJN 301700
TAFAGY
TAF
PAGY 301730Z 3018/0118 21011G22KT P6SM -SHRA SCT020 BKN070 BKN090
      TEMPO 3018/3019 3SM -TSRA BKN025CB OVC040
     FM302000 VRB05KT P6SM BKN040 OVC060
     FM302300 04005KT P6SM BKN040 BKN060
     FM010700 04009KT P6SM SCT040 BKN070
      AMD LTD TO CLD VIS AND WIND=

USA.gov is the U.S. government's official web portal to all federal, state and local government web resources and services.